Stations météo

réclame
Mon MeteoGroup
Malaga,Puerto, Espagne (8479): Température de l'air & dewpoint: 17.10.2018 12:00:00 - 23.10.2018 12:00:00 (CEST)Malaga,Puerto, Espagne (8479): Vitesse du vent & gusts: 17.10.2018 12:00:00 - 23.10.2018 12:00:00 (CEST)Malaga,Puerto, Espagne (8479): Direction du vent: 17.10.2018 12:00:00 - 23.10.2018 12:00:00 (CEST)Malaga,Puerto, Espagne (8479): reduced air pressure: 17.10.2018 12:00:00 - 23.10.2018 12:00:00 (CEST)Malaga,Puerto, Espagne (8479): Quantités de précipitations: 17.10.2018 12:00:00 - 23.10.2018 12:00:00 (CEST)
Date & Time tt [°C] td [°C] ff [km/h] ff [knt] fx [km/h] fx [knt] dd ppp [hPa] rr [mm]
23.10.2018 12:00:00 - - - - - - - - -
23.10.2018 11:00:00 22,9 15,7 3 2 7 4 S 1024,1 0,0
23.10.2018 10:00:00 22,2 17,1 3 1 14 8 E 1023,5 0,0
23.10.2018 09:00:00 20,6 17,0 6 3 11 6 E 1022,9 0,0
23.10.2018 08:00:00 20,1 16,3 1 1 6 3 WNW 1022,5 -
23.10.2018 07:00:00 19,9 16,2 2 1 8 4 WNW 1021,8 0,0
23.10.2018 06:00:00 19,5 15,8 5 3 10 5 NW 1021,9 0,0
23.10.2018 05:00:00 19,4 15,7 5 3 10 5 NNW 1022,1 0,0
23.10.2018 04:00:00 19,5 16,0 4 2 7 4 NNW 1022,1 0,0
23.10.2018 03:00:00 19,3 15,6 4 2 11 6 NW 1021,8 0,0
23.10.2018 02:00:00 19,4 15,7 6 3 10 6 NNW 1021,9 -
23.10.2018 01:00:00 19,6 15,9 4 2 9 5 NNW 1022,0 0,0
23.10.2018 00:00:00 19,7 16,0 4 2 9 5 NNW 1021,9 0,0
22.10.2018 23:00:00 20,1 16,3 1 1 8 4 N 1021,4 0,0
22.10.2018 22:00:00 20,4 16,2 3 2 8 4 NNE 1020,9 0,0
22.10.2018 21:00:00 20,9 16,3 3 1 8 5 E 1020,3 0,0
22.10.2018 20:00:00 21,1 15,6 6 3 10 6 ESE 1019,9 -
22.10.2018 19:00:00 21,4 14,8 4 2 7 4 ESE 1019,5 0,0
22.10.2018 18:00:00 22,9 14,5 5 3 11 6 E 1018,9 0,0
22.10.2018 17:00:00 23,3 14,0 6 3 10 5 SE 1018,5 0,0
22.10.2018 16:00:00 25,1 14,9 4 2 9 5 ESE 1018,7 0,0
22.10.2018 15:00:00 24,7 15,1 4 2 18 10 SSE 1019,2 0,0
22.10.2018 14:00:00 23,3 14,3 10 6 14 7 SSW 1020,0 -
22.10.2018 13:00:00 25,2 14,0 6 3 10 6 SSW 1020,3 0,0
22.10.2018 12:00:00 25,5 15,8 1 1 6 4 S 1020,1 0,0
22.10.2018 11:00:00 21,2 15,3 4 2 11 6 WNW 1020,5 0,0
22.10.2018 10:00:00 20,4 15,2 6 3 14 7 NW 1020,2 0,0
22.10.2018 09:00:00 18,8 15,1 9 5 14 7 NNW 1019,6 0,0
22.10.2018 08:00:00 18,8 14,7 12 6 15 8 NW 1019,3 -
22.10.2018 07:00:00 19,2 15,1 8 4 16 9 NNW 1019,2 0,0
22.10.2018 06:00:00 19,2 15,1 9 5 17 9 N 1019,0 0,0
22.10.2018 05:00:00 19,1 15,2 5 3 11 6 NNW 1018,9 0,0
22.10.2018 04:00:00 19,1 15,2 6 4 10 6 NW 1019,0 0,0
22.10.2018 03:00:00 19,5 15,2 4 2 9 5 N 1019,1 0,0
22.10.2018 02:00:00 19,8 15,2 5 3 14 7 NNW 1019,0 -
22.10.2018 01:00:00 20,3 15,3 4 2 11 6 N 1019,1 0,0
22.10.2018 00:00:00 20,5 15,3 5 3 10 6 NNW 1018,9 0,0
21.10.2018 23:00:00 21,0 14,4 5 3 10 5 NW 1018,5 0,0
21.10.2018 22:00:00 20,7 13,4 6 3 10 6 W 1018,0 0,0
21.10.2018 21:00:00 20,8 13,0 6 3 10 6 W 1017,7 0,0
21.10.2018 20:00:00 20,9 12,3 9 5 18 10 W 1017,6 -
21.10.2018 19:00:00 21,1 12,5 10 6 22 12 W 1017,2 0,0
21.10.2018 18:00:00 21,3 12,2 8 5 22 12 W 1016,9 0,0
21.10.2018 17:00:00 21,0 12,2 12 7 26 14 W 1017,1 0,0
21.10.2018 16:00:00 21,5 12,1 12 6 34 18 W 1016,8 0,0
21.10.2018 15:00:00 21,3 12,4 11 6 29 16 W 1016,6 0,0
21.10.2018 14:00:00 20,9 12,9 15 8 32 18 WSW 1017,1 -
21.10.2018 13:00:00 22,1 14,0 11 6 26 14 W 1017,6 0,0
21.10.2018 12:00:00 23,0 14,8 9 5 19 10 WSW 1017,1 0,0
21.10.2018 11:00:00 21,2 14,8 7 4 17 9 W 1017,1 0,0
21.10.2018 10:00:00 19,7 14,9 7 4 18 10 W 1017,0 0,0
21.10.2018 09:00:00 18,4 14,7 9 5 16 9 W 1016,8 0,0
21.10.2018 08:00:00 18,3 14,8 10 5 16 9 W 1016,0 -
21.10.2018 07:00:00 18,4 15,3 9 5 15 8 W 1016,0 0,0
21.10.2018 06:00:00 20,1 17,7 5 3 12 7 W 1015,6 0,0
21.10.2018 05:00:00 20,0 17,8 9 5 15 8 N 1015,5 0,0
21.10.2018 04:00:00 20,0 17,8 4 2 12 6 NNW 1015,6 0,0
21.10.2018 03:00:00 20,3 17,9 1 1 11 6 SSW 1015,6 0,0
21.10.2018 02:00:00 20,6 17,6 7 4 19 10 S 1015,8 -
21.10.2018 01:00:00 20,7 17,5 13 7 23 13 S 1015,5 0,0
21.10.2018 00:00:00 21,0 17,0 14 7 28 15 SE 1016,2 0,0
20.10.2018 23:00:00 21,2 16,8 11 6 41 22 E 1015,9 0,0
20.10.2018 22:00:00 21,4 16,8 21 12 42 23 E 1014,7 0,0
20.10.2018 21:00:00 21,2 16,6 8 4 33 18 E 1014,8 0,1
20.10.2018 20:00:00 21,1 16,5 7 4 29 16 ESE 1014,7 -
20.10.2018 19:00:00 21,4 15,7 18 10 41 22 E 1013,8 0,0
20.10.2018 18:00:00 21,1 15,4 16 8 29 16 ESE 1013,6 0,0
20.10.2018 17:00:00 20,4 15,2 13 7 29 16 SE 1013,4 0,0
20.10.2018 16:00:00 20,2 14,1 16 9 34 18 ESE 1013,5 0,0
20.10.2018 15:00:00 20,1 14,7 11 6 18 10 S 1014,0 0,0
20.10.2018 14:00:00 20,0 14,1 7 4 14 8 S 1014,7 -
20.10.2018 13:00:00 21,5 15,1 1 1 18 10 WNW 1015,1 0,0
20.10.2018 12:00:00 17,6 13,7 6 4 19 10 W 1015,3 0,0
20.10.2018 11:00:00 15,8 13,1 5 3 11 6 W 1015,4 0,6
20.10.2018 10:00:00 16,3 12,3 7 4 16 9 NE 1015,4 4,3
20.10.2018 09:00:00 16,1 10,4 7 4 16 9 NNW 1014,1 0,1
20.10.2018 08:00:00 16,3 10,2 9 5 14 8 NNW 1013,7 -
20.10.2018 07:00:00 16,1 10,0 9 5 15 8 NW 1013,9 0,0
20.10.2018 06:00:00 16,1 9,3 10 5 18 10 NNW 1013,7 0,0
20.10.2018 05:00:00 15,4 9,8 11 6 16 9 NW 1014,1 0,0
20.10.2018 04:00:00 15,8 10,3 4 2 14 7 NW 1014,1 0,0
20.10.2018 03:00:00 16,0 10,1 7 4 16 9 NNW 1014,3 0,0
20.10.2018 02:00:00 16,1 10,2 7 4 15 8 NNW 1014,4 -
20.10.2018 01:00:00 16,4 9,8 10 5 16 9 NNW 1014,2 0,0
20.10.2018 00:00:00 16,4 9,8 11 6 14 8 NW 1014,4 0,0
19.10.2018 23:00:00 17,4 10,5 8 4 11 6 NNW 1014,4 0,0
19.10.2018 22:00:00 18,3 10,9 4 2 13 7 NE 1013,9 0,0
19.10.2018 21:00:00 18,4 11,5 6 4 21 11 ENE 1013,5 0,0
19.10.2018 20:00:00 - - - - - - - - -
19.10.2018 19:00:00 19,1 12,6 9 5 31 17 E 1012,3 0,0
19.10.2018 18:00:00 19,4 12,9 8 4 34 18 E 1012,1 0,0
19.10.2018 17:00:00 19,2 10,7 13 7 30 16 E 1011,7 0,0
19.10.2018 16:00:00 18,6 10,9 19 11 35 19 E 1011,6 0,0
19.10.2018 15:00:00 18,0 12,7 15 8 53 29 ENE 1012,0 0,1
19.10.2018 14:00:00 19,6 9,2 9 5 23 12 SE 1012,2 -
19.10.2018 13:00:00 22,2 6,8 3 2 10 5 SSE 1012,1 0,0
19.10.2018 12:00:00 18,6 9,1 5 3 16 8 W 1012,2 0,0
19.10.2018 11:00:00 17,0 9,2 4 2 14 8 W 1012,4 0,0
19.10.2018 10:00:00 14,1 8,5 8 4 14 8 W 1011,7 0,0
19.10.2018 09:00:00 14,0 8,2 7 4 16 9 NW 1011,4 0,0
19.10.2018 08:00:00 13,5 8,4 8 5 16 9 NNW 1010,8 -
19.10.2018 07:00:00 13,3 8,2 9 5 14 8 NNW 1010,7 0,0
19.10.2018 06:00:00 13,3 8,4 10 5 17 9 NW 1010,4 0,0
19.10.2018 05:00:00 13,4 8,5 8 4 13 7 NW 1010,5 0,0
19.10.2018 04:00:00 13,6 8,9 7 4 18 10 NNW 1010,5 0,0
19.10.2018 03:00:00 13,7 9,2 8 4 16 8 NW 1011,0 0,0
19.10.2018 02:00:00 13,9 10,1 7 4 11 6 NNW 1010,9 -
19.10.2018 01:00:00 14,6 10,6 5 3 16 9 WNW 1010,9 0,0
19.10.2018 00:00:00 14,3 10,7 8 4 16 9 NW 1011,0 0,0
18.10.2018 23:00:00 14,6 11,0 9 5 16 8 NNW 1011,2 0,0
18.10.2018 22:00:00 14,9 11,3 8 4 14 7 N 1011,1 0,0
18.10.2018 21:00:00 15,0 11,4 8 4 12 7 N 1010,8 0,0
18.10.2018 20:00:00 15,3 11,5 5 3 10 5 N 1010,1 -
18.10.2018 19:00:00 15,3 10,7 5 3 31 17 ENE 1009,5 2,8
18.10.2018 18:00:00 17,6 9,3 6 4 12 6 ESE 1008,8 0,0
18.10.2018 17:00:00 19,0 9,2 5 3 13 7 SE 1008,5 0,0
18.10.2018 16:00:00 19,0 9,2 3 1 11 6 ESE 1008,1 0,0
18.10.2018 15:00:00 16,9 10,3 4 2 17 9 W 1008,6 0,0
18.10.2018 14:00:00 17,6 10,7 0 0 12 6 ENE 1009,1 -
18.10.2018 13:00:00 15,2 11,0 0 0 32 17 E 1009,6 0,9
18.10.2018 12:00:00 14,4 11,6 12 7 34 18 N 1008,6 3,1
18.10.2018 11:00:00 13,9 12,5 12 6 45 25 WNW 1009,4 13,2
18.10.2018 10:00:00 17,7 14,8 6 4 13 7 NE 1006,4 0,0
18.10.2018 09:00:00 17,1 14,9 6 3 17 9 N 1006,7 0,6
18.10.2018 08:00:00 17,1 14,4 1 1 31 17 N 1007,3 -
18.10.2018 07:00:00 19,3 16,0 9 5 22 12 ENE 1007,3 0,9
18.10.2018 06:00:00 19,7 16,2 13 7 27 15 E 1008,0 0,0
18.10.2018 05:00:00 19,8 15,9 8 5 22 12 E 1008,5 0,0
18.10.2018 04:00:00 19,8 14,8 6 3 17 9 ESE 1009,4 0,0
18.10.2018 03:00:00 19,4 14,0 4 2 8 4 NNE 1010,4 0,0
18.10.2018 02:00:00 18,8 11,9 5 3 11 6 NW 1011,4 -
18.10.2018 01:00:00 19,1 11,9 5 3 11 6 N 1012,0 0,0
18.10.2018 00:00:00 19,3 12,1 7 4 11 6 NW 1012,7 0,0
17.10.2018 23:00:00 19,8 12,8 5 3 9 5 N 1013,3 0,0
17.10.2018 22:00:00 20,2 13,2 2 1 9 5 E 1013,1 0,0
17.10.2018 21:00:00 20,5 13,5 6 4 19 11 E 1013,1 0,0
17.10.2018 20:00:00 20,3 14,2 10 5 23 12 E 1013,1 -
17.10.2018 19:00:00 20,8 15,1 11 6 18 10 E 1012,9 0,0
17.10.2018 18:00:00 20,3 14,9 11 6 15 8 SE 1013,3 0,0
17.10.2018 17:00:00 21,0 15,3 10 5 17 9 ESE 1013,7 0,0
17.10.2018 16:00:00 21,0 15,5 10 5 15 8 ESE 1014,2 0,0
17.10.2018 15:00:00 21,5 14,9 11 6 16 9 SSE 1014,7 0,0
17.10.2018 14:00:00 21,7 15,8 13 7 20 11 S 1015,4 -
17.10.2018 13:00:00 21,7 15,3 10 5 18 10 S 1015,9 0,0
17.10.2018 12:00:00 22,8 11,5 10 6 18 10 WSW 1015,8 0,0

tt = Température de l'air
td = dewpoint
ff = Vitesse du vent
fx = gusts
dd = Direction du vent
ppp = reduced air pressure
rr = Quantités de précipitations

stations d'obs. à proximité